createdAt,value
2022-09-16T00:00:52.341Z,1.35
2022-09-16T00:03:20.154Z,1.20
2022-09-16T00:05:56.333Z,1.40
2022-09-16T00:08:23.788Z,1.83
2022-09-16T00:10:51.347Z,1.50
2022-09-16T00:13:19.768Z,2.20
2022-09-16T00:15:51.376Z,1.20
2022-09-16T00:18:19.749Z,1.20
2022-09-16T00:20:49.358Z,1.13
2022-09-16T00:23:17.175Z,1.10
2022-09-16T00:25:44.489Z,1.85
2022-09-16T00:28:11.534Z,1.27
2022-09-16T00:30:38.725Z,1.50
2022-09-16T00:33:05.979Z,1.73
2022-09-16T00:35:33.214Z,1.25
2022-09-16T00:38:00.265Z,1.30
2022-09-16T00:40:27.700Z,1.25
2022-09-16T00:42:54.897Z,1.45
2022-09-16T00:45:25.759Z,3.40
2022-09-16T00:48:16.737Z,1.40
2022-09-16T00:50:52.368Z,1.27
2022-09-16T00:53:26.673Z,2.03
2022-09-16T00:55:56.499Z,1.38
2022-09-16T00:58:39.954Z,2.90
2022-09-16T01:01:07.428Z,3.03
2022-09-16T01:03:52.207Z,1.52
2022-09-16T01:06:20.255Z,2.33
2022-09-16T01:08:49.830Z,2.05
2022-09-16T01:11:17.510Z,1.58
2022-09-16T01:13:46.341Z,1.92
2022-09-16T01:16:24.002Z,1.90
2022-09-16T01:19:02.155Z,4.00
2022-09-16T01:21:44.670Z,1.85
2022-09-16T01:24:29.567Z,2.00
2022-09-16T01:27:18.787Z,1.50
2022-09-16T01:30:03.966Z,2.33
2022-09-16T01:32:58.031Z,2.30
2022-09-16T01:35:43.580Z,1.33
2022-09-16T01:38:37.133Z,1.55
2022-09-16T01:41:43.070Z,2.03
2022-09-16T01:44:29.401Z,1.40
2022-09-16T01:47:29.462Z,1.92
2022-09-16T01:50:21.183Z,1.90
2022-09-16T01:53:08.436Z,1.35
2022-09-16T01:55:41.262Z,1.33
2022-09-16T01:58:16.250Z,1.83
2022-09-16T02:00:46.566Z,1.45
2022-09-16T02:03:20.340Z,1.48
2022-09-16T02:06:08.128Z,1.35
2022-09-16T02:09:02.357Z,1.65
2022-09-16T02:11:30.282Z,1.50
2022-09-16T02:14:09.543Z,1.42
2022-09-16T02:16:45.886Z,1.42
2022-09-16T02:19:20.205Z,1.20
2022-09-16T02:21:48.003Z,1.65
2022-09-16T02:24:18.589Z,1.70
2022-09-16T02:27:03.291Z,1.27
2022-09-16T02:29:45.596Z,1.48
2022-09-16T02:32:14.306Z,1.60
2022-09-16T02:34:47.511Z,1.30
2022-09-16T02:37:24.945Z,2.95
2022-09-16T02:39:58.006Z,1.70
2022-09-16T02:42:25.624Z,1.23
2022-09-16T02:45:03.410Z,1.15
2022-09-16T02:47:37.813Z,1.60
2022-09-16T02:50:17.432Z,1.83
2022-09-16T02:53:00.229Z,1.15
2022-09-16T02:55:57.631Z,2.20
2022-09-16T02:58:24.931Z,1.55
2022-09-16T03:01:00.333Z,1.75
2022-09-16T03:06:07.556Z,1.35
2022-09-16T03:08:36.508Z,1.70
2022-09-16T03:11:36.276Z,1.60
2022-09-16T03:14:09.544Z,2.00
2022-09-16T03:17:13.959Z,1.90
2022-09-16T03:20:12.467Z,1.48
2022-09-16T03:22:42.384Z,1.85
2022-09-16T03:25:21.404Z,1.20
2022-09-16T03:27:54.902Z,1.67
2022-09-16T03:30:22.112Z,1.80
2022-09-16T03:32:57.383Z,1.60
2022-09-16T03:35:31.169Z,2.03
2022-09-16T03:38:00.986Z,2.90
2022-09-16T03:40:30.144Z,2.42
2022-09-16T03:42:58.901Z,2.50
2022-09-16T03:45:26.380Z,2.28
2022-09-16T03:47:56.563Z,3.38
2022-09-16T03:50:23.910Z,3.00
2022-09-16T03:52:51.151Z,2.75
2022-09-16T03:55:19.382Z,2.78
2022-09-16T03:57:46.478Z,1.98
2022-09-16T04:00:16.098Z,2.42
2022-09-16T04:02:43.361Z,3.20
2022-09-16T04:05:10.726Z,2.80
2022-09-16T04:07:37.902Z,2.33
2022-09-16T04:10:07.079Z,2.92
2022-09-16T04:12:34.912Z,2.45
2022-09-16T04:15:02.280Z,2.85
2022-09-16T04:17:32.933Z,3.17
2022-09-16T04:20:00.361Z,2.65
2022-09-16T04:22:31.857Z,2.42
2022-09-16T04:24:59.412Z,2.53
2022-09-16T04:27:27.548Z,2.55
2022-09-16T04:29:54.884Z,2.67
2022-09-16T04:32:22.144Z,2.75
2022-09-16T04:34:49.193Z,2.78
2022-09-16T04:53:05.752Z,2.90
2022-09-16T04:55:33.601Z,3.22
2022-09-16T04:58:09.530Z,3.40
2022-09-16T05:00:43.122Z,3.05
2022-09-16T05:23:09.269Z,2.63
2022-09-16T05:25:49.858Z,2.90
2022-09-16T05:28:17.428Z,3.40
2022-09-16T05:30:45.023Z,2.75
2022-09-16T05:33:12.374Z,3.53
2022-09-16T05:35:39.680Z,3.00
2022-09-16T05:38:06.863Z,2.85
2022-09-16T05:40:34.142Z,4.10
2022-09-16T05:43:01.304Z,2.70
2022-09-16T05:45:32.182Z,3.00
2022-09-16T05:47:59.885Z,3.13
2022-09-16T05:50:27.335Z,2.65
2022-09-16T05:52:54.610Z,2.95
2022-09-16T05:55:21.824Z,3.13
2022-09-16T05:57:48.993Z,3.10
2022-09-16T06:00:26.028Z,3.65
2022-09-16T06:02:53.317Z,3.25
2022-09-16T06:05:20.830Z,3.35
2022-09-16T06:07:48.123Z,2.97
2022-09-16T06:10:15.656Z,2.95
2022-09-16T06:12:42.941Z,3.08
2022-09-16T06:15:10.669Z,3.17
2022-09-16T06:17:37.966Z,2.65
2022-09-16T06:20:06.510Z,5.03
2022-09-16T06:22:33.771Z,4.55
2022-09-16T06:25:00.972Z,3.03
2022-09-16T06:27:28.135Z,2.65
2022-09-16T06:29:55.396Z,3.25
2022-09-16T06:32:23.219Z,3.55
2022-09-16T06:34:50.671Z,2.60
2022-09-16T06:37:17.929Z,3.13
2022-09-16T06:39:45.112Z,3.20
2022-09-16T06:42:12.357Z,3.30
2022-09-16T06:44:39.532Z,3.22
2022-09-16T06:47:06.784Z,3.05
2022-09-16T06:49:34.137Z,3.17
2022-09-16T06:52:01.630Z,3.40
2022-09-16T06:54:32.165Z,2.70
2022-09-16T06:57:09.945Z,4.10
2022-09-16T06:59:41.607Z,3.03
2022-09-16T07:02:13.157Z,2.63
2022-09-16T07:04:41.079Z,3.22
2022-09-16T07:07:10.387Z,3.35
2022-09-16T07:09:38.150Z,3.05
2022-09-16T07:12:05.871Z,3.15
2022-09-16T07:14:33.063Z,3.80
2022-09-16T07:17:01.674Z,2.78
2022-09-16T07:19:29.437Z,3.00
2022-09-16T07:21:56.776Z,2.67
2022-09-16T07:24:24.077Z,2.55
2022-09-16T07:26:51.597Z,2.28
2022-09-16T07:29:20.897Z,2.05
2022-09-16T07:31:48.628Z,2.08
2022-09-16T07:34:16.319Z,2.60
2022-09-16T07:36:46.441Z,3.30
2022-09-16T07:39:16.056Z,2.65
2022-09-16T07:41:45.323Z,1.73
2022-09-16T07:44:14.799Z,1.48
2022-09-16T07:46:45.091Z,1.38
2022-09-16T07:49:14.514Z,1.52
2022-09-16T07:51:42.276Z,1.52
2022-09-16T07:54:12.893Z,1.17
2022-09-16T07:56:42.104Z,1.42
2022-09-16T07:59:18.610Z,1.63
2022-09-16T08:01:53.673Z,1.10
2022-09-16T08:04:21.536Z,1.58
2022-09-16T08:06:49.262Z,1.40
2022-09-16T08:12:06.095Z,1.40
2022-09-16T08:14:33.593Z,1.45
2022-09-16T08:17:01.512Z,1.40
2022-09-16T08:19:28.685Z,6.30
2022-09-16T08:21:55.969Z,0.93
2022-09-16T08:24:23.192Z,1.08
2022-09-16T08:26:50.859Z,1.70
2022-09-16T08:29:18.461Z,1.38
2022-09-16T08:31:46.329Z,1.15
2022-09-16T08:34:13.753Z,2.75
2022-09-16T08:36:41.089Z,1.27
2022-09-16T08:39:10.091Z,2.05
2022-09-16T08:41:58.420Z,1.50
2022-09-16T08:44:50.977Z,1.40
2022-09-16T08:47:29.015Z,1.17
2022-09-16T08:49:59.371Z,1.42
2022-09-16T08:52:32.534Z,0.95
2022-09-16T08:55:13.229Z,2.28
2022-09-16T08:57:53.780Z,1.13
2022-09-16T09:00:21.094Z,1.45
2022-09-16T09:02:58.613Z,1.20
2022-09-16T09:05:52.898Z,1.30
2022-09-16T09:09:06.026Z,1.25
2022-09-16T09:12:11.419Z,1.40
2022-09-16T09:14:51.183Z,1.00
2022-09-16T09:17:56.305Z,0.95
2022-09-16T09:20:50.157Z,1.67
2022-09-16T09:23:33.367Z,1.10
2022-09-16T09:26:32.455Z,1.02
2022-09-16T09:29:10.119Z,1.30
2022-09-16T09:31:50.386Z,1.52
2022-09-16T09:34:25.547Z,1.20
2022-09-16T09:37:27.935Z,1.42
2022-09-16T09:40:01.395Z,1.02
2022-09-16T09:43:05.457Z,1.00
2022-09-16T09:46:09.422Z,1.33
2022-09-16T09:48:44.253Z,1.63
2022-09-16T09:51:34.690Z,1.48
2022-09-16T09:55:07.735Z,1.15
2022-09-16T10:01:02.466Z,1.58
2022-09-16T10:03:42.642Z,2.72
2022-09-16T10:09:17.323Z,1.10
2022-09-16T10:12:01.222Z,1.58
2022-09-16T10:14:39.174Z,1.85
2022-09-16T10:17:32.018Z,1.10
2022-09-16T10:20:37.604Z,2.53
2022-09-16T10:23:15.820Z,0.95
2022-09-16T10:25:46.426Z,1.17
2022-09-16T10:28:35.174Z,1.40
2022-09-16T10:31:03.285Z,0.90
2022-09-16T10:33:30.419Z,2.08
2022-09-16T10:36:02.841Z,1.58
2022-09-16T10:39:13.731Z,1.00
2022-09-16T10:42:02.134Z,1.00
2022-09-16T10:44:32.194Z,1.17
2022-09-16T10:47:30.534Z,0.88
2022-09-16T10:50:08.267Z,2.22
2022-09-16T10:52:50.789Z,1.17
2022-09-16T10:56:08.687Z,1.65
2022-09-16T10:59:14.619Z,1.55
2022-09-16T11:02:30.596Z,1.15
2022-09-16T11:05:20.656Z,0.65
2022-09-16T11:08:38.431Z,1.45
2022-09-16T11:11:43.153Z,1.20
2022-09-16T11:18:34.401Z,1.17
2022-09-16T11:21:29.537Z,1.90
2022-09-16T11:24:12.718Z,1.58
2022-09-16T11:27:11.216Z,1.02
2022-09-16T11:30:15.713Z,0.82
2022-09-16T11:33:47.974Z,1.90
2022-09-16T11:36:38.059Z,1.20
2022-09-16T11:39:37.248Z,1.10
2022-09-16T11:42:24.566Z,0.82
2022-09-16T11:46:00.435Z,2.15
2022-09-16T11:49:06.730Z,0.85
2022-09-16T11:52:06.473Z,1.48
2022-09-16T11:58:19.696Z,1.02
2022-09-16T12:00:50.757Z,1.13
2022-09-16T12:03:53.495Z,1.40
2022-09-16T12:06:34.648Z,0.88
2022-09-16T12:09:12.625Z,1.20
2022-09-16T12:12:08.176Z,2.75
2022-09-16T12:15:03.290Z,1.42
2022-09-16T12:20:38.661Z,0.90
2022-09-16T12:23:39.738Z,0.75
2022-09-16T12:26:16.863Z,1.33
2022-09-16T12:44:45.170Z,0.60
2022-09-16T12:47:31.407Z,1.40
2022-09-16T12:50:39.077Z,1.80
2022-09-16T12:53:41.931Z,0.88
2022-09-16T12:56:16.974Z,1.15
2022-09-16T12:59:06.338Z,1.63
2022-09-16T13:01:48.969Z,0.80
2022-09-16T13:04:39.348Z,0.77
2022-09-16T13:07:08.361Z,0.98
2022-09-16T13:10:07.209Z,0.93
2022-09-16T13:15:41.602Z,0.75
2022-09-16T13:18:17.400Z,0.93
2022-09-16T13:21:10.923Z,0.82
2022-09-16T13:23:52.970Z,1.10
2022-09-16T13:26:23.838Z,0.90
2022-09-16T13:28:53.664Z,1.23
2022-09-16T13:31:34.314Z,0.75
2022-09-16T13:34:18.249Z,0.73
2022-09-16T13:36:45.925Z,0.68
2022-09-16T13:39:34.872Z,1.35
2022-09-16T13:42:57.740Z,1.23
2022-09-16T13:45:50.570Z,1.90
2022-09-16T13:48:45.497Z,0.88
2022-09-16T13:51:23.883Z,1.17
2022-09-16T13:53:59.669Z,0.88
2022-09-16T13:57:12.756Z,2.08
2022-09-16T14:00:05.377Z,0.50
2022-09-16T14:02:37.524Z,0.88
2022-09-16T14:05:39.439Z,0.77
2022-09-16T14:08:15.860Z,1.20
2022-09-16T14:10:52.140Z,1.10
2022-09-16T14:13:26.268Z,1.23
2022-09-16T14:16:04.286Z,0.68
2022-09-16T14:18:34.510Z,1.30
2022-09-16T14:21:04.635Z,0.80
2022-09-16T14:23:35.377Z,1.77
2022-09-16T14:26:19.323Z,1.00
2022-09-16T14:28:48.980Z,2.03
2022-09-16T14:31:45.408Z,1.65
2022-09-16T14:34:20.541Z,1.02
2022-09-16T14:36:48.087Z,1.13
2022-09-16T14:39:22.083Z,0.90
2022-09-16T14:42:01.306Z,1.95
2022-09-16T14:44:46.923Z,1.50
2022-09-16T14:47:50.485Z,0.70
2022-09-16T14:50:31.153Z,1.13
2022-09-16T14:53:08.622Z,1.08
2022-09-16T14:55:41.910Z,0.80
2022-09-16T14:58:22.628Z,0.65
2022-09-16T15:01:10.341Z,1.00
2022-09-16T15:03:52.153Z,0.65
2022-09-16T15:06:26.134Z,0.70
2022-09-16T15:09:01.810Z,1.75
2022-09-16T15:11:47.648Z,0.20
2022-09-16T15:14:22.423Z,0.50
2022-09-16T15:17:01.099Z,1.33
2022-09-16T15:19:36.377Z,0.60
2022-09-16T15:22:04.332Z,0.30
2022-09-16T15:24:34.429Z,0.43
2022-09-16T15:27:02.613Z,1.40
2022-09-16T15:29:34.216Z,0.70
2022-09-16T15:32:19.768Z,1.55
2022-09-16T15:34:47.373Z,0.50
2022-09-16T15:37:32.503Z,1.50
2022-09-16T15:40:11.121Z,0.85
2022-09-16T15:42:38.633Z,0.65
2022-09-16T15:45:20.365Z,0.95
2022-09-16T15:48:21.338Z,1.17
2022-09-16T15:51:07.434Z,0.98
2022-09-16T15:53:46.623Z,0.93
2022-09-16T15:56:27.469Z,0.98
2022-09-16T15:59:01.221Z,1.15
2022-09-16T16:01:31.213Z,1.27
2022-09-16T16:04:01.162Z,1.20
2022-09-16T16:06:50.494Z,1.00
2022-09-16T16:09:29.953Z,1.33
2022-09-16T16:12:05.602Z,1.63
2022-09-16T16:14:33.904Z,1.20
2022-09-16T16:17:18.830Z,1.20
2022-09-16T16:19:50.546Z,1.40
2022-09-16T16:22:18.309Z,2.35
2022-09-16T16:24:45.710Z,2.35
2022-09-16T16:27:13.191Z,1.23
2022-09-16T16:29:40.488Z,1.88
2022-09-16T16:32:13.217Z,1.67
2022-09-16T16:34:42.946Z,3.13
2022-09-16T16:37:27.950Z,1.20
2022-09-16T16:40:00.431Z,1.02
2022-09-16T16:42:28.962Z,0.90
2022-09-16T16:44:57.078Z,1.50
2022-09-16T16:47:24.754Z,2.00
2022-09-16T16:49:58.249Z,2.45
2022-09-16T16:52:25.371Z,1.02
2022-09-16T16:54:52.907Z,1.52
2022-09-16T16:57:20.110Z,1.00
2022-09-16T16:59:47.398Z,0.90
2022-09-16T17:02:16.027Z,0.90
2022-09-16T17:04:43.265Z,1.23
2022-09-16T17:07:27.746Z,1.98
2022-09-16T17:09:57.682Z,1.10
2022-09-16T17:12:25.376Z,1.67
2022-09-16T17:14:52.633Z,1.63
2022-09-16T17:17:19.994Z,1.00
2022-09-16T17:19:50.976Z,1.60
2022-09-16T17:22:18.391Z,1.50
2022-09-16T17:24:45.567Z,1.50
2022-09-16T17:27:18.793Z,0.88
2022-09-16T17:29:46.119Z,0.85
2022-09-16T17:32:13.461Z,1.00
2022-09-16T17:34:42.371Z,1.25
2022-09-16T17:37:12.136Z,1.15
2022-09-16T17:39:42.573Z,1.90
2022-09-16T17:42:22.194Z,1.08
2022-09-16T17:45:01.210Z,1.20
2022-09-16T17:47:34.392Z,0.98
2022-09-16T17:50:05.677Z,0.90
2022-09-16T17:52:35.391Z,2.28
2022-09-16T17:55:02.791Z,1.42
2022-09-16T17:57:44.011Z,1.58
2022-09-16T18:00:35.238Z,1.20
2022-09-16T18:03:02.663Z,1.40
2022-09-16T18:05:33.843Z,0.93
2022-09-16T18:10:53.552Z,0.88
2022-09-16T18:14:10.612Z,1.30
2022-09-16T18:23:23.195Z,2.45
2022-09-16T18:26:04.675Z,2.55
2022-09-16T18:28:42.088Z,3.17
2022-09-16T18:35:13.454Z,10.60
2022-09-16T18:37:41.112Z,7.78
2022-09-16T18:40:09.119Z,7.78
2022-09-16T19:03:11.691Z,3.70
2022-09-16T19:11:47.697Z,4.67
2022-09-16T19:16:58.773Z,5.13
2022-09-16T19:19:36.470Z,3.65
2022-09-16T19:25:14.746Z,4.13
2022-09-16T19:27:43.699Z,4.35
2022-09-16T19:34:06.406Z,3.50
2022-09-16T19:36:45.531Z,4.15
2022-09-16T19:39:32.440Z,3.10
2022-09-16T19:42:09.994Z,4.07
2022-09-16T19:44:48.971Z,3.25
2022-09-16T19:50:19.403Z,5.45
2022-09-16T19:52:55.365Z,3.95
2022-09-16T19:55:25.849Z,3.63
2022-09-16T20:01:29.326Z,3.33
2022-09-16T20:04:12.261Z,3.28
2022-09-16T20:06:41.756Z,3.05
2022-09-16T20:09:57.064Z,3.13
2022-09-16T20:27:05.199Z,5.53
2022-09-16T20:29:32.307Z,2.22
2022-09-16T20:32:02.923Z,1.73
2022-09-16T20:34:30.369Z,2.10
2022-09-16T20:37:04.980Z,2.30
2022-09-16T20:39:32.346Z,2.70
2022-09-16T20:45:41.437Z,3.45
2022-09-16T20:48:39.404Z,2.22
2022-09-16T20:51:39.701Z,3.08
2022-09-16T20:54:15.750Z,2.78
2022-09-16T20:56:58.463Z,1.85
2022-09-16T21:02:11.208Z,2.35
2022-09-16T21:04:38.452Z,2.25
2022-09-16T21:07:05.863Z,2.42
2022-09-16T21:09:33.212Z,2.05
2022-09-16T21:12:00.489Z,1.80
2022-09-16T21:14:27.746Z,2.55
2022-09-16T21:17:14.056Z,2.70
2022-09-16T21:19:53.743Z,2.17
2022-09-16T21:22:23.927Z,2.85
2022-09-16T21:24:51.249Z,1.67
2022-09-16T21:27:18.643Z,2.35
2022-09-16T21:30:01.705Z,2.20
2022-09-16T21:35:43.451Z,2.40
2022-09-16T21:38:13.727Z,2.55
2022-09-16T21:41:03.638Z,5.30
2022-09-16T21:44:02.951Z,2.50
2022-09-16T21:47:26.098Z,2.70
2022-09-16T21:54:26.945Z,1.63
2022-09-16T21:57:02.367Z,2.38
2022-09-16T22:03:01.497Z,2.20
2022-09-16T22:05:33.215Z,2.00
2022-09-16T22:08:04.345Z,2.25
2022-09-16T22:10:34.571Z,2.67
2022-09-16T22:13:01.985Z,1.77
2022-09-16T22:15:29.211Z,2.90
2022-09-16T22:17:56.841Z,2.45
2022-09-16T22:20:30.293Z,2.05
2022-09-16T22:22:57.655Z,3.20
2022-09-16T22:25:25.222Z,2.45
2022-09-16T22:27:55.616Z,2.38
2022-09-16T22:30:52.018Z,3.53
2022-09-16T22:33:28.101Z,3.08
2022-09-16T22:35:55.501Z,2.38
2022-09-16T22:38:56.732Z,2.50
2022-09-16T22:41:25.385Z,1.98
2022-09-16T22:43:54.138Z,1.98
2022-09-16T22:46:24.541Z,2.20
2022-09-16T22:48:54.737Z,2.15
2022-09-16T22:51:33.555Z,2.20
2022-09-16T22:54:01.359Z,2.40
2022-09-16T22:56:34.127Z,3.47
2022-09-16T22:59:22.628Z,2.28
2022-09-16T23:02:03.631Z,2.50
2022-09-16T23:04:56.231Z,2.90
2022-09-16T23:07:23.828Z,2.13
2022-09-16T23:09:59.788Z,2.45
2022-09-16T23:15:24.876Z,2.70
2022-09-16T23:18:13.115Z,2.50
2022-09-16T23:20:53.551Z,2.67
2022-09-16T23:23:20.848Z,2.47
2022-09-16T23:25:48.338Z,2.90
2022-09-16T23:28:55.444Z,1.90
2022-09-16T23:31:45.676Z,3.53
2022-09-16T23:34:27.659Z,2.25
2022-09-16T23:36:57.512Z,3.30
2022-09-16T23:39:31.063Z,3.35
2022-09-16T23:41:59.493Z,3.53
2022-09-16T23:47:40.854Z,2.20
2022-09-16T23:50:11.543Z,2.60
2022-09-16T23:56:13.041Z,3.58
2022-09-16T23:58:51.598Z,4.28
